Terminal Aerodrome Forecast
Issued by NWS

Current Version | Previous Version | Text Only | Print | Product List | Glossary On
Versions: 1 2 3 4 5 6 7 8 9 10 11 12 13 14 15 16 17 18 19 20 21 22 23 24 25 26 27 28 29 30 31 32 33 34 35 36 37 38 39 40 41 42 43 44 45 46 47 48 49 50
000
FTUS41 KCTP 232339
TAFUNV
TAF
KUNV 232339Z 2400/2424 15004KT P6SM OVC150 WS012/17038KT
     FM240330 14005KT 4SM -RA BR OVC015 WS012/17042KT
     FM240600 16009G15KT 2SM -RA BR OVC007 WS015/17045KT
     FM241600 21012G23KT P6SM BKN035=

USA.gov is the U.S. government's official web portal to all federal, state and local government web resources and services.